Time;durP1;ratioP1;P1;durP2;ratioP2;P2;SDS_P1;SDS_P2;PMS_P1;PMS_P2;Temp;Humidity;BMP_temperature;BMP_pressure;BME280_temperature;BME280_humidity;BME280_pressure;Samples;Min_cycle;Max_cycle;Signal;HPM_P1;HPM_P2
2022/12/14 07:20:17;;;;;;;20.27;15.77;;;-2.50;92.60;;;;;;5091317;28;20613;-73
2022/12/14 07:22:44;;;;;;;26.70;18.47;;;-2.30;94.30;;;;;;5090424;28;20985;-73
2022/12/14 07:25:11;;;;;;;21.20;15.10;;;-2.00;94.60;;;;;;5090784;28;20444;-74
2022/12/14 07:27:37;;;;;;;22.43;18.47;;;-1.90;92.40;;;;;;5090855;28;20441;-73
2022/12/14 07:30:05;;;;;;;22.50;18.07;;;-1.70;90.70;;;;;;5090371;28;20449;-73
2022/12/14 07:32:31;;;;;;;20.27;15.23;;;-1.50;90.10;;;;;;5090697;28;20469;-73
2022/12/14 07:34:58;;;;;;;20.00;16.90;;;-1.20;89.20;;;;;;5090351;28;20814;-73
2022/12/14 07:37:26;;;;;;;23.43;19.07;;;-0.90;88.40;;;;;;5090806;28;20456;-75
2022/12/14 07:39:53;;;;;;;22.90;16.90;;;-0.70;87.60;;;;;;5090570;28;20472;-73
2022/12/14 07:42:19;;;;;;;20.10;15.83;;;-0.40;86.60;;;;;;5090108;28;20462;-74
2022/12/14 07:44:46;;;;;;;18.90;16.07;;;-0.20;86.00;;;;;;5090424;28;20484;-73
2022/12/14 07:47:13;;;;;;;18.93;15.90;;;0.00;84.90;;;;;;5090062;28;20963;-72
2022/12/14 07:49:40;;;;;;;20.10;16.13;;;0.20;84.40;;;;;;5090413;28;20495;-72
2022/12/14 07:52:07;;;;;;;28.43;18.00;;;0.30;83.10;;;;;;5090154;28;20472;-72
2022/12/14 07:54:35;;;;;;;20.00;16.70;;;0.50;82.70;;;;;;5090181;28;20448;-71
2022/12/14 07:57:01;;;;;;;20.27;17.63;;;0.60;81.50;;;;;;5090160;28;20445;-72
2022/12/14 07:59:28;;;;;;;17.33;15.53;;;0.20;81.20;;;;;;5090183;28;20476;-70
2022/12/14 08:01:55;;;;;;;19.17;15.63;;;0.20;82.50;;;;;;5090012;28;20488;-71
2022/12/14 08:04:22;;;;;;;22.67;16.10;;;0.10;82.20;;;;;;5090004;28;20532;-72
2022/12/14 08:06:49;;;;;;;22.50;15.43;;;0.10;82.60;;;;;;5089941;28;20449;-70
2022/12/14 08:09:16;;;;;;;22.63;16.67;;;0.20;82.20;;;;;;5089943;28;20444;-72
2022/12/14 08:11:44;;;;;;;21.33;17.50;;;0.10;82.20;;;;;;5089526;28;20471;-72
2022/12/14 08:14:13;;;;;;;21.30;16.93;;;0.10;82.70;;;;;;5089828;28;20441;-72
2022/12/14 08:16:40;;;;;;;20.10;17.37;;;0.00;82.70;;;;;;5089821;28;20540;-72
2022/12/14 08:19:07;;;;;;;23.23;18.30;;;0.10;83.50;;;;;;5090643;28;20489;-71
2022/12/14 08:21:33;;;;;;;26.13;18.50;;;0.30;83.10;;;;;;5090058;28;20973;-72
2022/12/14 08:24:00;;;;;;;23.33;18.77;;;0.40;82.10;;;;;;5089924;28;20797;-72
2022/12/14 08:26:27;;;;;;;20.30;18.10;;;0.10;82.40;;;;;;5089828;28;20449;-72
2022/12/14 08:28:56;;;;;;;26.30;18.73;;;0.00;82.90;;;;;;5089934;28;20441;-73
2022/12/14 08:31:26;;;;;;;21.33;18.33;;;-0.10;84.00;;;;;;5077557;28;20491;-73
2022/12/14 08:33:53;;;;;;;23.83;17.47;;;0.00;83.80;;;;;;5076208;28;20437;-72
2022/12/14 08:36:22;;;;;;;24.27;19.27;;;0.30;83.40;;;;;;5076277;28;20446;-72
2022/12/14 08:38:53;;;;;;;22.53;17.90;;;0.40;82.60;;;;;;5076118;28;20477;-71
2022/12/14 08:41:20;;;;;;;23.33;18.60;;;0.60;82.30;;;;;;5076101;28;20465;-72
2022/12/14 08:43:50;;;;;;;25.20;19.23;;;0.60;81.10;;;;;;5076201;28;20498;-71
2022/12/14 08:46:19;;;;;;;24.43;18.83;;;0.60;82.10;;;;;;5076806;28;20442;-72
2022/12/14 08:48:46;;;;;;;28.43;21.10;;;0.80;81.60;;;;;;5076187;28;20446;-72
2022/12/14 08:51:12;;;;;;;23.50;18.20;;;0.80;82.00;;;;;;5075308;28;20505;-73
2022/12/14 08:53:39;;;;;;;24.13;18.47;;;0.80;82.40;;;;;;5075655;28;20445;-72
2022/12/14 08:56:07;;;;;;;24.30;19.23;;;0.90;82.20;;;;;;5075546;28;20914;-72
2022/12/14 08:58:35;;;;;;;26.70;19.80;;;0.90;82.20;;;;;;5075481;28;20480;-72
2022/12/14 09:01:03;;;;;;;21.53;18.80;;;0.70;82.70;;;;;;5075175;28;21024;-72
2022/12/14 09:03:31;;;;;;;30.50;20.03;;;0.50;83.90;;;;;;5075475;28;20450;-72
2022/12/14 09:06:01;;;;;;;28.40;22.13;;;0.30;85.20;;;;;;5075167;28;20966;-72
2022/12/14 09:08:28;;;;;;;27.33;21.00;;;0.30;86.00;;;;;;5075549;28;20446;-73
2022/12/14 09:10:55;;;;;;;27.20;21.10;;;0.30;86.40;;;;;;5075494;28;20469;-72
2022/12/14 09:13:21;;;;;;;27.97;22.63;;;0.30;85.70;;;;;;5075342;28;20453;-72
2022/12/14 09:15:56;;;;;;;28.90;22.33;;;0.20;86.70;;;;;;5075353;28;20449;-71
2022/12/14 09:18:23;;;;;;;25.53;20.30;;;0.20;87.10;;;;;;5075065;28;20468;-72
2022/12/14 09:20:53;;;;;;;26.47;20.47;;;0.20;87.30;;;;;;5075312;28;20472;-71
2022/12/14 09:23:20;;;;;;;27.27;20.77;;;0.10;87.70;;;;;;5074958;28;20450;-72
2022/12/14 09:25:46;;;;;;;36.43;22.67;;;0.00;88.10;;;;;;5075166;28;20472;-72
2022/12/14 09:28:13;;;;;;;32.53;23.23;;;0.20;89.10;;;;;;5074931;28;20957;-72
2022/12/14 09:30:40;;;;;;;34.17;23.23;;;0.40;88.40;;;;;;5075083;28;20441;-72
2022/12/14 09:33:06;;;;;;;29.77;22.53;;;0.40;87.70;;;;;;5075283;28;20457;-72
2022/12/14 09:35:33;;;;;;;28.17;23.60;;;0.20;88.00;;;;;;5074924;28;20441;-72
2022/12/14 09:38:01;;;;;;;31.63;22.30;;;0.20;89.00;;;;;;5074984;28;20449;-73
2022/12/14 09:40:31;;;;;;;26.70;21.60;;;0.00;89.00;;;;;;5074472;28;20492;-72
2022/12/14 09:43:04;;;;;;;28.93;22.43;;;0.10;89.40;;;;;;5073854;28;20586;-72
2022/12/14 09:45:33;;;;;;;29.90;23.57;;;0.00;89.60;;;;;;5074697;28;20434;-72
2022/12/14 09:48:07;;;;;;;26.30;21.20;;;-0.10;89.80;;;;;;5074785;28;20442;-72
2022/12/14 09:50:34;;;;;;;30.80;23.00;;;0.00;90.10;;;;;;5074820;28;20429;-71
2022/12/14 09:53:07;;;;;;;30.20;23.73;;;0.00;90.00;;;;;;5074547;28;20442;-71
2022/12/14 09:55:37;;;;;;;32.47;23.80;;;0.00;90.00;;;;;;5074631;28;20480;-72
2022/12/14 09:58:12;;;;;;;32.50;23.73;;;0.00;90.30;;;;;;5074555;28;20458;-72
2022/12/14 10:00:43;;;;;;;25.23;22.20;;;0.20;89.80;;;;;;5074499;28;20468;-72
2022/12/14 10:03:23;;;;;;;32.20;24.00;;;0.20;88.60;;;;;;5074001;28;20852;-72
2022/12/14 10:06:11;;;;;;;30.17;23.80;;;0.30;88.90;;;;;;5074298;28;20425;-72
2022/12/14 10:08:43;;;;;;;25.40;20.97;;;0.40;89.40;;;;;;5074554;28;20426;-72
2022/12/14 10:11:16;;;;;;;25.07;21.93;;;0.40;88.80;;;;;;5074465;28;20458;-73
2022/12/14 10:13:51;;;;;;;25.53;22.87;;;0.60;89.30;;;;;;5075132;28;20429;-73
2022/12/14 10:16:27;;;;;;;28.37;21.97;;;0.80;88.20;;;;;;5074203;28;20448;-72
2022/12/14 10:19:18;;;;;;;27.30;22.17;;;0.80;87.60;;;;;;5073648;28;20946;-72
2022/12/14 10:21:48;;;;;;;24.57;21.27;;;0.80;87.90;;;;;;5074096;28;20473;-72
2022/12/14 10:24:21;;;;;;;30.23;22.00;;;0.90;88.20;;;;;;5074146;28;20465;-73
2022/12/14 10:26:51;;;;;;;30.93;23.97;;;0.90;87.70;;;;;;5074133;28;20426;-69
2022/12/14 10:29:30;;;;;;;28.87;24.03;;;0.90;87.60;;;;;;5074107;28;20474;-72
2022/12/14 10:32:04;;;;;;;30.53;23.73;;;0.90;88.50;;;;;;5073921;28;20462;-72
2022/12/14 10:34:33;;;;;;;27.40;22.67;;;0.80;88.40;;;;;;5073915;28;20893;-72
2022/12/14 10:37:21;;;;;;;25.87;21.67;;;0.90;88.20;;;;;;5074024;28;20537;-72
2022/12/14 10:39:58;;;;;;;30.17;23.07;;;1.00;88.60;;;;;;5073834;28;20466;-71
2022/12/14 10:42:34;;;;;;;28.80;23.77;;;1.10;88.20;;;;;;5073771;28;20484;-73
2022/12/14 10:45:16;;;;;;;27.53;22.70;;;1.10;87.80;;;;;;5073526;28;20903;-72
2022/12/14 10:47:47;;;;;;;26.63;20.30;;;1.20;87.70;;;;;;5073961;28;20465;-74
2022/12/14 10:50:20;;;;;;;29.20;22.57;;;1.10;87.60;;;;;;5073582;28;20441;-72
2022/12/14 10:52:50;;;;;;;28.40;21.47;;;1.20;87.70;;;;;;5073295;28;20426;-73
2022/12/14 10:55:23;;;;;;;27.63;22.17;;;1.00;87.20;;;;;;5073554;28;20434;-73
2022/12/14 10:57:50;;;;;;;26.43;22.43;;;1.00;87.80;;;;;;5073147;28;20881;-72
2022/12/14 11:00:17;;;;;;;34.47;26.93;;;1.00;88.10;;;;;;5073356;28;20481;-74
2022/12/14 11:02:47;;;;;;;27.50;20.70;;;1.00;88.30;;;;;;5073324;28;20470;-73
2022/12/14 11:05:25;;;;;;;30.27;23.53;;;1.10;88.20;;;;;;5073324;28;20453;-73
2022/12/14 11:07:51;;;;;;;31.00;22.07;;;1.20;87.90;;;;;;5074121;28;20433;-72
2022/12/14 11:10:22;;;;;;;29.60;22.77;;;1.40;87.70;;;;;;5073326;28;20438;-73
2022/12/14 11:13:00;;;;;;;31.37;22.97;;;1.50;87.10;;;;;;5073309;28;20430;-72
2022/12/14 11:15:30;;;;;;;30.20;22.77;;;1.60;86.20;;;;;;5073227;28;20445;-74
2022/12/14 11:18:04;;;;;;;28.13;23.07;;;1.40;86.00;;;;;;5073153;28;20450;-73
2022/12/14 11:20:31;;;;;;;28.27;23.23;;;1.50;86.50;;;;;;5073155;28;20462;-73
2022/12/14 11:23:20;;;;;;;28.43;22.77;;;1.30;86.30;;;;;;5073165;28;20453;-72
2022/12/14 11:25:50;;;;;;;28.57;22.40;;;1.40;87.00;;;;;;5073265;28;20434;-73
2022/12/14 11:28:26;;;;;;;30.60;23.83;;;1.50;86.80;;;;;;5073201;28;20430;-73
2022/12/14 11:30:56;;;;;;;29.37;23.90;;;1.70;86.70;;;;;;5073152;28;20965;-74
2022/12/14 11:33:28;;;;;;;27.17;22.70;;;1.80;85.70;;;;;;5073219;28;20430;-73
2022/12/14 11:35:55;;;;;;;28.83;23.97;;;1.70;85.70;;;;;;5072817;28;20430;-73
2022/12/14 11:38:23;;;;;;;35.50;25.50;;;1.70;86.20;;;;;;5072760;28;20445;-72
2022/12/14 11:40:51;;;;;;;26.73;23.77;;;1.70;85.80;;;;;;5073001;28;20485;-71
2022/12/14 11:43:25;;;;;;;28.07;23.80;;;1.90;85.80;;;;;;5073018;28;20472;-73
2022/12/14 11:45:55;;;;;;;30.03;23.17;;;2.10;85.40;;;;;;5072586;28;20437;-73
2022/12/14 11:48:24;;;;;;;29.90;23.83;;;2.20;85.40;;;;;;5072538;28;20962;-74
2022/12/14 11:50:52;;;;;;;28.10;23.03;;;2.10;85.60;;;;;;5072840;28;20472;-72
2022/12/14 11:53:21;;;;;;;30.20;24.13;;;1.90;85.70;;;;;;5072960;28;20452;-73
2022/12/14 11:55:54;;;;;;;32.53;23.67;;;2.00;86.30;;;;;;5072896;28;20445;-70
2022/12/14 11:58:24;;;;;;;29.07;24.30;;;2.10;85.60;;;;;;5072868;28;20454;-73
2022/12/14 12:00:57;;;;;;;34.17;24.73;;;2.10;85.80;;;;;;5072401;28;21009;-73
2022/12/14 12:03:27;;;;;;;32.03;24.13;;;2.10;85.80;;;;;;5072730;28;20435;-73
2022/12/14 12:05:59;;;;;;;34.57;25.17;;;1.90;86.20;;;;;;5074669;28;20929;-73
2022/12/14 12:08:28;;;;;;;33.33;26.07;;;1.80;87.20;;;;;;5076749;28;20433;-73
2022/12/14 12:10:58;;;;;;;33.40;26.60;;;2.10;87.70;;;;;;5076371;28;20460;-73
2022/12/14 12:13:30;;;;;;;35.53;25.93;;;2.30;87.00;;;;;;5077195;28;20451;-73
2022/12/14 12:15:59;;;;;;;27.40;23.27;;;2.60;86.10;;;;;;5076345;28;20445;-74
2022/12/14 12:18:31;;;;;;;28.73;24.40;;;2.50;85.30;;;;;;5076635;28;20462;-74
2022/12/14 12:21:06;;;;;;;39.27;28.10;;;2.40;85.40;;;;;;5076956;28;20516;-72
2022/12/14 12:23:37;;;;;;;31.90;25.90;;;2.30;86.20;;;;;;5076707;28;20425;-71
2022/12/14 12:26:14;;;;;;;33.10;24.17;;;2.40;86.30;;;;;;5076368;28;20497;-72
2022/12/14 12:28:46;;;;;;;36.90;26.20;;;2.40;86.30;;;;;;5076901;28;20521;-72
2022/12/14 12:31:18;;;;;;;33.63;24.40;;;2.60;86.10;;;;;;5077429;28;20461;-73
2022/12/14 12:33:50;;;;;;;31.90;23.00;;;2.80;85.70;;;;;;5076594;28;20430;-72
2022/12/14 12:36:18;;;;;;;29.93;24.20;;;2.80;85.10;;;;;;5076257;28;20430;-73
2022/12/14 12:38:55;;;;;;;36.57;27.23;;;2.70;85.20;;;;;;5075972;28;20528;-72
2022/12/14 12:41:31;;;;;;;32.00;24.37;;;2.60;85.50;;;;;;5075911;28;20515;-74
2022/12/14 12:44:14;;;;;;;32.57;24.20;;;2.50;86.30;;;;;;5075998;28;20433;-73
2022/12/14 12:46:50;;;;;;;35.67;26.30;;;2.60;86.20;;;;;;5075519;28;20835;-73
2022/12/14 12:49:17;;;;;;;30.10;25.60;;;2.60;85.70;;;;;;5075657;28;20426;-73
2022/12/14 12:51:49;;;;;;;33.03;27.50;;;2.50;86.40;;;;;;5075598;28;20494;-73
2022/12/14 12:54:20;;;;;;;29.73;25.07;;;2.50;86.70;;;;;;5075700;28;20434;-73
2022/12/14 12:56:50;;;;;;;34.33;24.57;;;2.70;86.40;;;;;;5075666;28;20438;-73
2022/12/14 12:59:19;;;;;;;27.10;23.77;;;2.80;85.90;;;;;;5075819;28;20445;-73
2022/12/14 13:01:49;;;;;;;28.87;24.20;;;2.90;85.50;;;;;;5075830;28;20477;-73
2022/12/14 13:04:32;;;;;;;38.63;25.57;;;3.00;85.40;;;;;;5076421;28;20848;-73
2022/12/14 13:07:04;;;;;;;36.93;26.70;;;3.10;85.40;;;;;;5076304;28;20795;-73
2022/12/14 13:09:40;;;;;;;31.70;23.70;;;3.10;85.10;;;;;;5076145;28;20434;-73
2022/12/14 13:12:28;;;;;;;29.67;24.27;;;3.10;84.80;;;;;;5075867;28;20990;-72
2022/12/14 13:14:56;;;;;;;39.07;26.83;;;3.10;84.90;;;;;;5075496;28;20437;-72
2022/12/14 13:17:29;;;;;;;34.60;26.77;;;3.10;84.60;;;;;;5075760;28;20453;-72
2022/12/14 13:19:57;;;;;;;33.03;26.47;;;3.00;85.20;;;;;;5074857;28;20489;-72
2022/12/14 13:22:27;;;;;;;32.30;23.90;;;3.00;85.20;;;;;;5075146;28;20465;-72
2022/12/14 13:24:56;;;;;;;31.30;25.70;;;2.90;85.50;;;;;;5075135;28;20491;-72
2022/12/14 13:28:04;;;;;;;35.30;24.80;;;2.80;85.70;;;;;;5075041;28;20468;-73
2022/12/14 13:30:53;;;;;;;26.93;22.37;;;2.90;85.70;;;;;;5059772;28;20510;-74
2022/12/14 13:34:02;;;;;;;35.23;23.97;;;2.90;85.40;;;;;;5074950;28;20441;-73
2022/12/14 13:36:52;;;;;;;33.83;24.87;;;2.80;84.90;;;;;;5074837;28;20445;-73
2022/12/14 13:39:39;;;;;;;28.57;23.33;;;2.80;85.10;;;;;;5075168;28;20480;-74
2022/12/14 13:42:10;;;;;;;29.73;25.37;;;2.70;84.70;;;;;;5075037;28;20472;-73
2022/12/14 13:44:48;;;;;;;30.67;24.77;;;2.50;84.70;;;;;;5075380;28;20441;-73
2022/12/14 13:47:21;;;;;;;28.73;24.37;;;2.40;84.80;;;;;;5074983;28;20456;-73
2022/12/14 13:49:56;;;;;;;32.87;23.30;;;2.40;85.30;;;;;;5075031;28;20433;-70
2022/12/14 13:52:33;;;;;;;30.50;23.50;;;2.50;85.10;;;;;;5074698;28;20465;-74
2022/12/14 13:55:00;;;;;;;34.37;24.73;;;2.70;84.70;;;;;;5074890;28;20433;-72
2022/12/14 13:57:27;;;;;;;33.73;25.80;;;2.70;84.60;;;;;;5074877;28;20457;-73
2022/12/14 13:59:57;;;;;;;34.47;24.30;;;2.80;84.20;;;;;;5074490;28;20446;-73
2022/12/14 14:02:52;;;;;;;33.77;24.20;;;2.90;83.90;;;;;;5074322;28;20470;-74
2022/12/14 14:05:44;;;;;;;31.00;23.20;;;2.90;83.40;;;;;;5074316;28;20488;-72
2022/12/14 14:08:28;;;;;;;27.50;22.50;;;3.00;83.10;;;;;;5074227;28;20457;-72
2022/12/14 14:10:55;;;;;;;26.53;22.10;;;3.00;82.90;;;;;;5074018;28;20561;-72
2022/12/14 14:13:58;;;;;;;29.43;23.40;;;3.00;83.00;;;;;;5074054;28;20438;-73
2022/12/14 14:16:33;;;;;;;33.63;23.80;;;2.90;82.90;;;;;;5073715;28;20903;-73
2022/12/14 14:19:14;;;;;;;34.23;24.60;;;2.90;82.70;;;;;;5073671;28;20453;-72
2022/12/14 14:21:43;;;;;;;30.87;26.63;;;2.90;83.00;;;;;;5073756;28;20481;-73
2022/12/14 14:24:20;;;;;;;24.77;22.00;;;2.80;83.20;;;;;;5073871;28;20453;-73
2022/12/14 14:27:00;;;;;;;25.23;22.17;;;2.80;83.00;;;;;;5073802;28;20537;-73
2022/12/14 14:29:28;;;;;;;31.53;24.87;;;2.70;83.10;;;;;;5073357;28;20461;-73
2022/12/14 14:31:57;;;;;;;29.83;22.70;;;2.70;83.20;;;;;;5073276;28;20962;-73
2022/12/14 14:34:34;;;;;;;29.20;22.93;;;2.70;83.00;;;;;;5073628;28;20484;-73
2022/12/14 14:37:12;;;;;;;27.90;22.70;;;2.60;83.10;;;;;;5073668;28;20429;-72
2022/12/14 14:39:41;;;;;;;25.90;22.77;;;2.60;83.10;;;;;;5073705;28;20433;-71
2022/12/14 14:42:18;;;;;;;28.13;22.07;;;2.60;83.40;;;;;;5073458;28;20485;-73
2022/12/14 14:44:50;;;;;;;30.93;26.17;;;2.50;83.40;;;;;;5073538;28;20452;-72
2022/12/14 14:47:25;;;;;;;30.47;23.40;;;2.50;83.50;;;;;;5073225;28;20933;-73
2022/12/14 14:49:58;;;;;;;27.23;21.10;;;2.50;83.30;;;;;;5073418;28;20440;-72
2022/12/14 14:52:44;;;;;;;29.50;23.50;;;2.40;83.60;;;;;;5073637;28;20467;-73
2022/12/14 14:55:40;;;;;;;29.73;22.83;;;2.30;83.40;;;;;;5073930;28;20445;-73
2022/12/14 14:58:22;;;;;;;32.67;24.30;;;2.30;83.60;;;;;;5073346;28;20556;-74
2022/12/14 15:00:52;;;;;;;35.20;26.20;;;2.30;83.80;;;;;;5073184;28;20488;-71
2022/12/14 15:03:21;;;;;;;30.57;22.80;;;2.20;83.80;;;;;;5073135;28;20518;-73
2022/12/14 15:05:49;;;;;;;30.83;22.77;;;2.10;84.30;;;;;;5072954;28;20456;-69
2022/12/14 15:08:19;;;;;;;40.90;22.40;;;2.10;84.60;;;;;;5073270;28;20445;-72
2022/12/14 15:10:47;;;;;;;30.70;22.27;;;2.20;84.40;;;;;;5073144;28;20462;-73
2022/12/14 15:13:19;;;;;;;27.57;23.07;;;2.20;84.30;;;;;;5073173;28;20813;-73
2022/12/14 15:15:48;;;;;;;28.67;22.70;;;2.10;84.40;;;;;;5073221;28;20445;-73
2022/12/14 15:18:19;;;;;;;25.00;21.50;;;2.10;84.40;;;;;;5073688;28;20461;-74
2022/12/14 15:20:56;;;;;;;27.00;21.17;;;2.10;84.30;;;;;;5072696;28;21033;-72
2022/12/14 15:23:23;;;;;;;26.80;19.93;;;2.10;84.30;;;;;;5073203;28;20429;-73
2022/12/14 15:25:58;;;;;;;26.50;20.20;;;2.20;84.10;;;;;;5073045;28;20449;-71
2022/12/14 15:28:26;;;;;;;23.13;19.97;;;2.20;83.80;;;;;;5072850;28;20433;-72
2022/12/14 15:30:54;;;;;;;26.37;19.17;;;2.10;83.80;;;;;;5072942;28;20461;-72
2022/12/14 15:33:26;;;;;;;31.30;20.97;;;2.20;84.10;;;;;;5073295;28;20519;-73
2022/12/14 15:36:01;;;;;;;25.13;18.37;;;2.20;83.90;;;;;;5072750;28;20832;-73
2022/12/14 15:38:32;;;;;;;22.57;17.53;;;2.30;83.80;;;;;;5072774;28;20430;-73
2022/12/14 15:41:01;;;;;;;20.70;18.00;;;2.30;83.60;;;;;;5074996;28;20493;-72
2022/12/14 15:43:29;;;;;;;22.13;17.60;;;2.20;83.50;;;;;;5077010;28;20446;-72
2022/12/14 15:45:59;;;;;;;23.27;17.93;;;2.30;83.30;;;;;;5076900;28;20553;-71
2022/12/14 15:48:29;;;;;;;21.70;18.33;;;2.30;83.40;;;;;;5076546;28;20433;-73
2022/12/14 15:51:01;;;;;;;24.60;17.73;;;2.30;83.50;;;;;;5076472;28;20993;-72
2022/12/14 15:53:32;;;;;;;21.73;17.60;;;2.30;83.50;;;;;;5076899;28;20584;-73
2022/12/14 15:56:00;;;;;;;23.10;17.77;;;2.30;83.30;;;;;;5076736;28;20459;-73
2022/12/14 15:58:30;;;;;;;20.77;17.33;;;2.40;83.20;;;;;;5076316;28;20862;-72
2022/12/14 16:01:03;;;;;;;25.93;18.13;;;2.30;83.00;;;;;;5076473;28;20485;-73
2022/12/14 16:03:35;;;;;;;25.60;17.50;;;2.30;83.20;;;;;;5076308;28;20432;-72
2022/12/14 16:06:04;;;;;;;27.60;18.80;;;2.30;83.30;;;;;;5076551;28;20465;-73
2022/12/14 16:08:33;;;;;;;20.97;16.40;;;2.30;83.50;;;;;;5076467;28;20859;-71
2022/12/14 16:11:03;;;;;;;22.03;16.13;;;2.30;83.40;;;;;;5076340;28;20484;-72
2022/12/14 16:13:33;;;;;;;20.53;15.13;;;2.30;83.00;;;;;;5099426;22;20448;-72
2022/12/14 16:16:07;;;;;;;18.10;15.30;;;2.30;83.20;;;;;;5036844;28;20935;-73
2022/12/14 16:18:34;;;;;;;18.13;15.00;;;2.20;82.90;;;;;;5036742;28;20428;-71
2022/12/14 16:21:03;;;;;;;18.00;15.00;;;2.20;83.20;;;;;;5036730;28;20483;-73
2022/12/14 16:23:32;;;;;;;19.87;15.77;;;2.20;82.90;;;;;;5036648;28;20859;-74
2022/12/14 16:26:01;;;;;;;21.10;16.40;;;2.20;83.10;;;;;;5036461;28;20446;-73
2022/12/14 16:28:31;;;;;;;19.50;15.47;;;2.20;83.00;;;;;;5036080;28;20987;-72
2022/12/14 16:31:01;;;;;;;21.10;16.00;;;2.20;82.90;;;;;;5036281;28;20455;-72
2022/12/14 16:33:29;;;;;;;21.47;16.30;;;2.30;82.80;;;;;;5036223;28;20435;-72
2022/12/14 16:36:07;;;;;;;19.47;14.37;;;2.30;82.70;;;;;;5036286;28;20448;-74
2022/12/14 16:38:39;;;;;;;17.97;15.10;;;2.40;82.30;;;;;;5036257;28;20510;-72
2022/12/14 16:41:06;;;;;;;20.30;16.83;;;2.40;82.30;;;;;;5036057;28;20470;-74
2022/12/14 16:43:35;;;;;;;22.47;16.13;;;2.40;82.50;;;;;;5035880;28;20459;-74
2022/12/14 16:46:20;;;;;;;18.20;15.80;;;2.40;82.30;;;;;;5035993;28;20455;-73
2022/12/14 16:49:17;;;;;;;20.83;16.00;;;2.40;82.20;;;;;;5035935;28;20827;-73
2022/12/14 16:51:46;;;;;;;17.93;15.80;;;2.30;82.00;;;;;;5027704;28;20980;-73
2022/12/14 16:54:23;;;;;;;18.07;14.57;;;2.30;82.20;;;;;;5035877;28;20548;-73
2022/12/14 16:56:55;;;;;;;21.63;16.30;;;2.30;82.20;;;;;;5035974;28;20439;-73
2022/12/14 16:59:25;;;;;;;17.80;14.53;;;2.20;82.30;;;;;;5036134;28;20436;-74
2022/12/14 17:01:52;;;;;;;24.47;17.67;;;2.20;82.40;;;;;;5035596;28;20483;-73
2022/12/14 17:04:20;;;;;;;24.23;17.87;;;2.20;82.50;;;;;;5035255;28;20975;-73
2022/12/14 17:06:51;;;;;;;21.70;17.00;;;2.20;82.60;;;;;;5035560;28;20487;-72
2022/12/14 17:09:20;;;;;;;19.83;17.63;;;2.20;82.40;;;;;;5035458;28;20460;-74
2022/12/14 17:11:48;;;;;;;21.13;16.83;;;2.10;82.70;;;;;;5035576;28;20440;-74
2022/12/14 17:14:16;;;;;;;19.77;14.90;;;2.10;82.80;;;;;;5035121;28;20479;-74
2022/12/14 17:16:44;;;;;;;22.00;16.23;;;2.20;83.20;;;;;;5035438;28;20447;-73
2022/12/14 17:19:19;;;;;;;22.93;17.13;;;2.10;83.40;;;;;;5035405;28;20444;-74
2022/12/14 17:21:46;;;;;;;18.53;15.70;;;2.20;83.30;;;;;;5035425;28;20471;-73
2022/12/14 17:24:17;;;;;;;18.33;15.37;;;2.20;83.20;;;;;;5035325;28;20475;-73
2022/12/14 17:26:44;;;;;;;21.80;17.17;;;2.20;83.10;;;;;;5035451;28;20494;-74
2022/12/14 17:29:17;;;;;;;24.33;16.73;;;2.20;83.10;;;;;;5035408;28;20526;-74
2022/12/14 17:31:45;;;;;;;19.70;15.70;;;2.30;82.70;;;;;;5035344;28;20494;-74
2022/12/14 17:34:11;;;;;;;24.53;18.87;;;2.30;82.70;;;;;;5034878;28;21003;-74
2022/12/14 17:36:38;;;;;;;19.90;16.07;;;2.20;82.60;;;;;;5035103;28;20453;-73
2022/12/14 17:39:05;;;;;;;20.80;15.67;;;2.20;82.60;;;;;;5035280;28;20450;-75
2022/12/14 17:41:37;;;;;;;21.33;16.90;;;2.20;82.40;;;;;;5034722;28;20510;-73
2022/12/14 17:44:04;;;;;;;19.93;16.57;;;2.10;82.40;;;;;;5035000;28;20474;-74
2022/12/14 17:46:31;;;;;;;21.27;15.50;;;2.00;82.50;;;;;;5034940;28;20451;-74
2022/12/14 17:48:58;;;;;;;18.57;15.13;;;2.10;82.60;;;;;;5034837;28;20448;-74
2022/12/14 17:51:27;;;;;;;22.07;17.17;;;2.10;82.50;;;;;;5034669;28;20833;-74
2022/12/14 17:53:55;;;;;;;23.20;17.17;;;2.10;82.60;;;;;;5034718;28;20463;-73
2022/12/14 17:56:22;;;;;;;23.20;18.03;;;2.10;82.50;;;;;;5035160;28;20444;-74
2022/12/14 17:58:50;;;;;;;22.57;16.53;;;2.10;82.60;;;;;;5050680;28;20447;-72
2022/12/14 18:01:21;;;;;;;20.90;15.47;;;2.10;82.30;;;;;;5058322;28;20520;-75
2022/12/14 18:03:48;;;;;;;20.20;16.47;;;2.10;82.30;;;;;;5059305;28;20550;-75
2022/12/14 18:06:16;;;;;;;21.10;17.70;;;2.10;82.40;;;;;;5039328;28;20451;-74
2022/12/14 18:08:43;;;;;;;21.40;16.77;;;2.10;82.50;;;;;;5034808;28;20538;-74
2022/12/14 18:11:14;;;;;;;23.40;18.70;;;2.00;82.30;;;;;;5034889;28;20452;-74
2022/12/14 18:13:41;;;;;;;20.53;17.37;;;2.10;82.10;;;;;;5034084;28;21017;-75
2022/12/14 18:16:12;;;;;;;19.60;16.03;;;2.10;82.00;;;;;;5043050;28;20439;-73
2022/12/14 18:18:39;;;;;;;20.07;16.43;;;2.10;82.10;;;;;;5053942;28;20408;-74
2022/12/14 18:21:14;;;;;;;17.47;15.60;;;2.10;82.20;;;;;;5035153;28;20458;-73
2022/12/14 18:23:41;;;;;;;24.53;16.37;;;2.10;81.90;;;;;;5034419;28;20471;-74
2022/12/14 18:26:08;;;;;;;16.50;14.90;;;2.10;81.70;;;;;;5034117;28;20452;-74
2022/12/14 18:28:35;;;;;;;24.10;17.53;;;2.10;81.50;;;;;;5034149;28;20446;-73
2022/12/14 18:31:04;;;;;;;23.70;17.10;;;2.10;81.60;;;;;;5034140;28;20451;-74
2022/12/14 18:33:33;;;;;;;18.47;16.30;;;2.10;81.50;;;;;;5033941;28;20494;-74
2022/12/14 18:36:00;;;;;;;21.00;16.30;;;2.10;81.30;;;;;;5033896;28;20937;-74
2022/12/14 18:38:27;;;;;;;21.37;16.30;;;1.90;81.60;;;;;;5034128;28;20461;-74
2022/12/14 18:40:55;;;;;;;20.97;16.57;;;1.80;82.80;;;;;;5034016;28;20454;-74
2022/12/14 18:43:24;;;;;;;22.10;16.10;;;1.70;82.50;;;;;;5034274;28;20487;-74
2022/12/14 18:45:52;;;;;;;22.50;16.80;;;1.40;83.10;;;;;;5034519;28;20447;-74
2022/12/14 18:48:19;;;;;;;19.57;15.87;;;1.40;84.00;;;;;;5034506;28;20451;-75
2022/12/14 18:50:47;;;;;;;20.17;15.80;;;1.40;84.00;;;;;;5034568;28;20447;-74
2022/12/14 18:53:14;;;;;;;17.77;14.70;;;1.40;83.80;;;;;;5033893;28;20474;-74
2022/12/14 18:55:42;;;;;;;21.77;17.37;;;1.30;84.00;;;;;;5033820;28;20471;-74
2022/12/14 18:58:15;;;;;;;23.20;18.20;;;1.30;84.50;;;;;;5035313;28;20456;-74
2022/12/14 19:00:42;;;;;;;19.37;15.30;;;1.30;84.60;;;;;;5036101;28;20439;-74
2022/12/14 19:03:08;;;;;;;18.30;16.30;;;1.40;84.20;;;;;;5034948;28;20618;-73
2022/12/14 19:05:35;;;;;;;18.80;14.90;;;1.50;83.90;;;;;;5033774;28;20475;-70
2022/12/14 19:08:04;;;;;;;21.73;16.90;;;1.60;83.70;;;;;;5033650;28;20461;-70
2022/12/14 19:10:32;;;;;;;19.83;16.83;;;1.70;83.40;;;;;;5033339;28;20977;-72
2022/12/14 19:12:59;;;;;;;23.47;16.50;;;1.70;83.10;;;;;;5033486;28;20451;-73
2022/12/14 19:15:27;;;;;;;21.70;16.97;;;1.80;83.10;;;;;;5032914;28;20546;-72
2022/12/14 19:17:54;;;;;;;22.87;16.10;;;1.80;83.00;;;;;;5033415;28;20447;-72
2022/12/14 19:20:22;;;;;;;18.63;15.13;;;1.80;82.80;;;;;;5033965;28;20475;-73
2022/12/14 19:22:50;;;;;;;20.20;16.83;;;1.70;82.70;;;;;;5034871;28;20485;-74
2022/12/14 19:25:19;;;;;;;26.33;18.83;;;1.60;82.60;;;;;;5034884;28;20471;-74
2022/12/14 19:27:48;;;;;;;21.60;16.83;;;1.60;83.10;;;;;;5034039;28;20455;-74
2022/12/14 19:30:21;;;;;;;20.23;15.80;;;1.60;83.00;;;;;;5033375;28;20482;-74
2022/12/14 19:32:49;;;;;;;22.93;16.77;;;1.60;82.70;;;;;;5033432;28;20446;-75
2022/12/14 19:35:15;;;;;;;23.13;18.50;;;1.50;83.00;;;;;;5033257;28;20460;-73
2022/12/14 19:37:42;;;;;;;24.13;19.50;;;1.50;83.10;;;;;;5033217;28;20447;-74
2022/12/14 19:40:10;;;;;;;23.70;18.93;;;1.40;83.00;;;;;;5032852;28;20968;-73
2022/12/14 19:42:38;;;;;;;20.40;18.03;;;1.40;83.10;;;;;;5033008;28;20475;-71
2022/12/14 19:45:06;;;;;;;20.17;16.20;;;1.50;83.10;;;;;;5032976;28;20476;-74
2022/12/14 19:47:33;;;;;;;22.43;17.17;;;1.50;83.20;;;;;;5032843;28;20856;-74
2022/12/14 19:50:00;;;;;;;21.87;16.80;;;1.40;83.00;;;;;;5033079;28;20448;-74
2022/12/14 19:52:27;;;;;;;19.47;15.33;;;1.40;83.40;;;;;;5032766;28;20954;-74
2022/12/14 19:54:54;;;;;;;16.63;14.43;;;1.40;83.50;;;;;;5032890;28;20471;-74
2022/12/14 19:57:20;;;;;;;22.77;15.97;;;1.50;83.00;;;;;;5033068;28;20455;-73
2022/12/14 19:59:48;;;;;;;23.10;18.60;;;1.60;82.80;;;;;;5032984;28;20447;-74
2022/12/14 20:02:15;;;;;;;21.90;17.70;;;1.70;82.30;;;;;;5032859;28;20486;-74
2022/12/14 20:04:42;;;;;;;21.60;17.90;;;1.70;82.00;;;;;;5032737;28;20470;-74
2022/12/14 20:07:09;;;;;;;21.13;17.60;;;1.70;81.90;;;;;;5033194;28;20451;-74
2022/12/14 20:09:36;;;;;;;18.80;15.87;;;1.70;81.90;;;;;;5033119;28;20447;-73
2022/12/14 20:12:03;;;;;;;21.77;15.63;;;1.80;81.80;;;;;;5032895;28;20452;-73
2022/12/14 20:14:30;;;;;;;20.90;17.63;;;1.80;81.70;;;;;;5032567;28;20494;-74